Latest Weather Observations for Canungra (Defence)

IDQ60801

Issued at 9:32 pm EST Monday 19 November 2018 (issued every 10 minutes, with the page automatically refreshed every 10 minutes)

About weather observations | Map of weather stations | Latest weather observations for QLD | Other Formats
Station Details ID: 140008 Name: CANUNGRA (DEFENCE) Lat: -28.04 Lon: 153.19 Height: 108.15 m
Data from the previous 72 hours. | See also: Recent months for locations in Queensland
Date/Time
EST
Temp
°C
App
Temp
°C
Dew
Point
°C
Rel
Hum
%
Delta-T
°C
Wind Press
QNH
hPa
Press
MSL
hPa
Rain since
9am
mm
Dir  Spd
km/h
Gust
km/h
Spd
kts
Gust
kts
19/09:30pm 13.3 13.8 11.5 89 1.0 CALM 0 0 0 0 - - 0.0
19/09:00pm 14.0 14.6 11.9 87 1.1 CALM 0 0 0 0 - - 0.0
19/08:30pm 14.6 15.3 12.1 85 1.4 CALM 0 0 0 0 - - 0.0
19/08:00pm 15.2 15.9 12.2 82 1.6 CALM 0 0 0 0 - - 0.0
19/07:30pm 15.9 16.2 12.1 78 2.1 SE 2 7 1 4 - - 0.0
19/07:00pm 17.0 17.5 11.7 71 2.9 CALM 0 0 0 0 - - 0.0
19/06:30pm 19.3 19.0 11.6 61 4.3 SSE 4 9 2 5 - - 0.0
19/06:00pm 20.6 19.6 11.0 54 5.3 ESE 7 15 4 8 - - 0.0
19/05:30pm 21.7 20.9 11.7 53 5.6 E 7 13 4 7 - - 0.0
19/05:00pm 22.3 21.5 11.7 51 6.0 E 7 13 4 7 - - 0.0
19/04:30pm 22.3 21.6 12.0 52 5.8 ENE 7 17 4 9 - - 0.0
19/04:00pm 22.9 22.3 12.2 51 6.1 ESE 7 19 4 10 - - 0.0
19/03:30pm 22.6 21.5 12.0 51 6.0 ENE 9 20 5 11 - - 0.0
19/03:00pm 23.2 22.1 11.9 49 6.4 E 9 17 5 9 - - 0.0
19/02:30pm 23.6 22.9 12.0 48 6.6 NE 7 19 4 10 - - 0.0
19/02:00pm 23.4 22.7 12.1 49 6.4 E 7 15 4 8 - - 0.0
19/01:30pm 23.5 23.2 12.8 51 6.2 E 6 9 3 5 - - 0.0
19/01:00pm 23.5 23.2 12.8 51 6.2 ENE 6 11 3 6 - - 0.0
19/12:30pm 23.3 22.7 12.3 50 6.3 NE 7 13 4 7 - - 0.0
19/12:00pm 24.3 24.4 13.8 52 6.2 NE 6 20 3 11 - - 0.0
19/11:30am 23.4 23.6 13.0 52 6.0 E 4 13 2 7 - - 0.0
19/11:00am 24.1 23.5 13.6 52 6.2 E 9 19 5 10 - - 0.0
19/10:30am 23.1 23.6 12.7 52 6.0 SE 2 7 1 4 - - 0.0
19/10:00am 23.2 22.7 11.9 49 6.4 SE 6 15 3 8 - - 0.0
19/09:30am 22.9 21.9 12.2 51 6.1 SSE 9 17 5 9 - - 0.0
19/09:00am 22.1 21.2 12.6 55 5.4 S 9 19 5 10 - - 0.8
19/08:30am 21.6 20.7 12.5 56 5.2 SSE 9 20 5 11 - - 0.8
19/08:00am 21.3 20.2 13.0 59 4.8 SSE 11 22 6 12 - - 0.8
19/07:30am 20.4 20.7 14.5 69 3.5 S 6 9 3 5 - - 0.8
19/07:00am 18.8 19.9 14.5 76 2.5 SE 2 6 1 3 - - 0.6
19/06:30am 16.6 17.5 15.0 90 0.9 SE 4 7 2 4 - - 0.6
19/06:00am 14.4 15.7 14.1 98 0.2 CALM 0 0 0 0 - - 0.6
19/05:30am 13.0 13.8 12.5 97 0.3 CALM 0 0 0 0 - - 0.6
19/05:00am 13.0 13.8 12.5 97 0.3 CALM 0 0 0 0 - - 0.6
19/04:30am 13.4 14.3 12.8 96 0.3 CALM 0 0 0 0 - - 0.6
19/04:00am 13.8 14.8 13.2 96 0.3 CALM 0 0 0 0 - - 0.6
19/03:30am 14.4 15.2 13.6 95 0.4 SSE 2 6 1 3 - - 0.6
19/03:00am 14.7 15.8 13.6 93 0.6 CALM 0 2 0 1 - - 0.6
19/02:30am 16.0 16.8 14.7 92 0.7 SSW 4 7 2 4 - - 0.6
19/02:00am 16.1 17.7 14.8 92 0.8 CALM 0 0 0 0 - - 0.6
19/01:30am 16.6 17.1 15.0 90 0.9 SSE 6 15 3 8 - - 0.6
19/01:00am 15.5 16.9 14.5 94 0.6 CALM 0 0 0 0 - - 0.6
19/12:30am 16.2 17.9 15.2 94 0.6 CALM 0 2 0 1 - - 0.6
19/12:00am 16.6 18.0 15.3 92 0.8 SSE 2 4 1 2 - - 0.6
 
Date/Time
EST
Temp
°C
App
Temp
°C
Dew
Point
°C
Rel
Hum
%
Delta-T
°C
Wind Press
QNH
hPa
Press
MSL
hPa
Rain since
9am
mm
Dir  Spd
km/h
Gust
km/h
Spd
kts
Gust
kts
18/11:30pm 17.2 19.0 15.4 89 1.1 CALM 0 4 0 2 - - 0.6
18/11:00pm 16.7 18.4 15.1 90 0.9 CALM 0 2 0 1 - - 0.6
18/10:30pm 17.8 18.8 15.4 86 1.4 SSE 4 11 2 6 - - 0.6
18/10:00pm 18.0 19.4 15.4 85 1.5 SSW 2 6 1 3 - - 0.6
18/09:30pm 18.5 19.4 15.2 81 1.9 SSE 4 6 2 3 - - 0.6
18/09:00pm 18.7 19.6 15.0 79 2.2 SSE 4 6 2 3 - - 0.6
18/08:30pm 19.4 20.3 15.1 76 2.5 S 4 7 2 4 - - 0.6
18/08:00pm 19.6 20.5 15.0 75 2.7 SE 4 7 2 4 - - 0.6
18/07:30pm 19.1 20.3 15.0 77 2.4 S 2 9 1 5 - - 0.6
18/07:00pm 19.6 20.1 15.0 75 2.7 SSW 6 13 3 7 - - 0.6
18/06:30pm 20.4 20.6 14.3 68 3.6 WSW 6 11 3 6 - - 0.6
18/06:00pm 20.8 21.4 14.2 66 3.9 SW 4 7 2 4 - - 0.6
18/05:30pm 21.3 21.9 14.2 64 4.2 SE 4 9 2 5 - - 0.6
18/05:00pm 22.1 22.9 14.7 63 4.4 SE 4 11 2 6 - - 0.6
18/04:30pm 22.7 23.7 15.3 63 4.4 SE 4 13 2 7 - - 0.6
18/04:00pm 22.2 23.2 15.3 65 4.1 SSE 4 6 2 3 - - 0.6
18/03:30pm 22.2 22.2 14.3 61 4.6 SE 7 11 4 6 - - 0.6
18/03:00pm 22.2 22.9 15.5 66 4.0 SE 6 13 3 7 - - 0.6
18/02:30pm 21.9 21.5 15.3 66 3.9 ENE 11 22 6 12 - - 0.6
18/02:00pm 23.0 23.3 15.1 61 4.7 SE 7 11 4 6 - - 0.6
18/01:30pm 23.0 23.2 14.8 60 4.9 E 7 13 4 7 - - 0.6
18/01:00pm 22.2 22.6 15.3 65 4.1 E 7 19 4 10 - - 0.6
18/12:30pm 24.0 25.9 17.7 68 3.9 E 4 11 2 6 - - 0.6
18/12:00pm 22.9 23.3 16.2 66 4.1 SE 9 20 5 11 - - 0.4
18/11:30am 21.9 23.0 16.6 72 3.2 SE 6 17 3 9 - - 0.4
18/11:00am 20.4 21.6 16.8 80 2.2 SW 6 13 3 7 - - 0.4
18/10:30am 22.8 22.9 15.4 63 4.4 SE 9 19 5 10 - - 0.0
18/10:00am 21.7 22.4 16.0 70 3.4 SSE 7 19 4 10 - - 0.0
18/09:30am 22.0 22.9 16.5 71 3.4 SSE 7 13 4 7 - - 0.0
18/09:00am 21.1 22.2 16.7 76 2.7 S 6 13 3 7 - - 5.2
18/08:30am 20.8 21.7 16.6 77 2.6 S 7 15 4 8 - - 5.2
18/08:00am 20.7 22.2 18.1 85 1.6 S 7 19 4 10 - - 5.2
18/07:30am 18.5 21.0 18.2 98 0.2 WSW 2 4 1 2 - - 5.2
18/07:00am 18.0 20.7 17.7 98 0.2 CALM 0 0 0 0 - - 4.8
18/06:30am 17.0 18.5 16.7 98 0.2 E 4 4 2 2 - - 4.6
18/06:00am 16.0 17.9 15.7 98 0.2 CALM 0 0 0 0 - - 4.0
18/05:30am 15.1 16.7 14.8 98 0.2 CALM 0 0 0 0 - - 4.0
18/05:00am 14.7 16.1 14.4 98 0.2 CALM 0 0 0 0 - - 4.0
18/04:30am 14.4 15.7 14.1 98 0.2 CALM 0 0 0 0 - - 4.0
18/04:00am 14.5 15.8 14.0 97 0.3 CALM 0 0 0 0 - - 4.0
18/03:30am 14.5 15.8 14.0 97 0.3 CALM 0 0 0 0 - - 4.0
18/03:00am 15.2 16.8 14.9 98 0.2 CALM 0 0 0 0 - - 4.0
18/02:30am 15.5 17.2 15.2 98 0.2 CALM 0 0 0 0 - - 4.0
18/02:00am 15.1 16.3 14.8 98 0.2 S 2 6 1 3 - - 4.0
18/01:30am 15.0 16.4 14.5 97 0.3 CALM 0 0 0 0 - - 4.0
18/01:00am 14.9 16.3 14.4 97 0.3 CALM 0 0 0 0 - - 4.0
18/12:30am 15.7 17.4 15.2 97 0.3 CALM 0 0 0 0 - - 4.0
18/12:00am 15.9 17.6 15.3 96 0.3 CALM 0 0 0 0 - - 4.0
 
Date/Time
EST
Temp
°C
App
Temp
°C
Dew
Point
°C
Rel
Hum
%
Delta-T
°C
Wind Press
QNH
hPa
Press
MSL
hPa
Rain since
9am
mm
Dir  Spd
km/h
Gust
km/h
Spd
kts
Gust
kts
17/11:30pm 16.6 17.9 16.1 97 0.3 SE 4 6 2 3 - - 4.0
17/11:00pm 16.9 18.7 16.4 97 0.3 SE 2 6 1 3 - - 4.0
17/10:30pm 17.2 19.5 16.7 97 0.3 CALM 0 0 0 0 - - 4.0
17/10:00pm 17.3 19.6 16.7 96 0.4 CALM 0 0 0 0 - - 4.0
17/09:30pm 18.0 20.6 17.5 97 0.3 CALM 0 0 0 0 - - 4.0
17/09:00pm 17.9 19.7 17.3 96 0.4 ESE 4 6 2 3 - - 4.0
17/08:30pm 17.7 20.1 16.9 95 0.5 CALM 0 0 0 0 - - 4.0
17/08:00pm 18.2 19.8 17.0 93 0.7 NNE 4 7 2 4 - - 3.8
17/07:30pm 19.0 20.7 17.1 89 1.2 NW 4 6 2 3 - - 3.8
17/07:00pm 18.8 20.6 17.3 91 0.9 ENE 4 13 2 7 - - 3.8
17/06:30pm 18.8 20.6 17.3 91 0.9 WNW 4 7 2 4 - - 2.4
17/06:00pm 19.2 20.8 17.0 87 1.3 WSW 4 19 2 10 - - 1.6
17/05:30pm 23.3 24.8 17.7 71 3.5 SSE 6 11 3 6 - - 0.0
17/05:00pm 23.5 24.9 17.7 70 3.6 NE 7 20 4 11 - - 0.0
17/04:30pm 23.9 25.5 17.9 69 3.8 NNE 6 13 3 7 - - 0.0
17/04:00pm 23.9 25.5 17.9 69 3.8 E 6 13 3 7 - - 0.0
17/03:30pm 24.9 26.4 18.1 66 4.3 E 7 17 4 9 - - 0.0
17/03:00pm 25.3 26.5 18.2 64 4.5 NE 9 22 5 12 - - 0.0
17/02:30pm 26.6 27.9 18.5 61 5.2 NE 9 19 5 10 - - 0.0
17/02:00pm 27.7 29.9 20.3 64 4.9 ENE 9 20 5 11 - - 0.0
17/01:30pm 28.6 30.3 18.1 53 6.7 ENE 6 9 3 5 - - 0.0
17/01:00pm 27.9 30.0 18.0 55 6.3 SE 4 9 2 5 - - 0.0
17/12:30pm 26.9 28.3 17.7 57 5.8 NNE 7 13 4 7 - - 0.0
17/12:00pm 27.3 29.0 17.2 54 6.4 NNE 4 9 2 5 - - 0.0
17/11:30am 28.0 29.7 18.1 55 6.3 NE 6 13 3 7 - - 0.0
17/11:00am 27.0 27.9 16.6 53 6.5 NE 7 13 4 7 - - 0.0
17/10:30am 26.4 28.3 16.6 55 6.1 S 2 4 1 2 - - 0.0
17/10:00am 25.5 26.9 16.4 57 5.6 NW 4 6 2 3 - - 0.0
17/09:30am 25.2 26.4 16.9 60 5.2 N 6 9 3 5 - - 0.0
17/09:00am 25.1 26.3 16.8 60 5.1 N 6 13 3 7 - - 0.2
17/08:30am 24.3 25.3 16.3 61 4.9 NNW 6 7 3 4 - - 0.2
17/08:00am 23.9 26.1 17.4 67 4.1 S 2 6 1 3 - - 0.2
17/07:30am 22.8 25.4 17.5 72 3.3 CALM 0 0 0 0 - - 0.2
17/07:00am 22.1 24.5 17.9 77 2.6 SE 2 4 1 2 - - 0.2
17/06:30am 21.2 24.0 18.0 82 2.0 CALM 0 0 0 0 - - 0.2
17/06:00am 19.4 22.3 18.1 92 0.8 CALM 0 0 0 0 - - 0.2
17/05:30am 18.9 21.5 17.6 92 0.8 CALM 0 0 0 0 - - 0.2
17/05:00am 18.6 21.1 17.3 92 0.8 CALM 0 0 0 0 - - 0.2
17/04:30am 18.9 21.5 17.4 91 0.9 CALM 0 0 0 0 - - 0.2
17/04:00am 19.1 21.7 17.6 91 0.9 CALM 0 0 0 0 - - 0.2
17/03:30am 19.1 21.7 17.4 90 1.0 CALM 0 0 0 0 - - 0.2
17/03:00am 19.0 21.5 17.3 90 1.0 CALM 0 0 0 0 - - 0.2
17/02:30am 18.9 21.4 17.2 90 1.0 CALM 0 0 0 0 - - 0.2
17/02:00am 19.2 21.7 17.2 88 1.2 CALM 0 0 0 0 - - 0.2
17/01:30am 19.5 22.1 17.6 89 1.2 CALM 0 0 0 0 - - 0.2
17/01:00am 19.4 22.0 17.5 89 1.2 CALM 0 0 0 0 - - 0.2
17/12:30am 19.3 21.8 17.3 88 1.2 CALM 0 0 0 0 - - 0.2
17/12:00am 19.5 22.1 17.6 89 1.2 CALM 0 0 0 0 - - 0.2
 
Date/Time
EST
Temp
°C
App
Temp
°C
Dew
Point
°C
Rel
Hum
%
Delta-T
°C
Wind Press
QNH
hPa
Press
MSL
hPa
Rain since
9am
mm
Dir  Spd
km/h
Gust
km/h
Spd
kts
Gust
kts
16/11:30pm 19.6 22.2 17.4 87 1.3 CALM 0 0 0 0 - - 0.2
16/11:00pm 19.7 22.4 17.7 88 1.2 CALM 0 0 0 0 - - 0.2
16/10:30pm 19.6 21.8 17.4 87 1.3 S 2 4 1 2 - - 0.2
16/10:00pm 19.3 21.9 17.4 89 1.2 CALM 0 0 0 0 - - 0.2

Other Formats:

Comma delimited format used in spreadsheet applications
http://www.bom.gov.au/fwo/IDQ60801/IDQ60801.94418.axf

JavaScript Object Notation format (JSON) in row-major order
http://www.bom.gov.au/fwo/IDQ60801/IDQ60801.94418.json